createdAt,value
2019-02-26T00:01:40.410Z,26.27
2019-02-26T00:04:20.956Z,22.30
2019-02-26T00:06:51.414Z,21.70
2019-02-26T00:09:24.868Z,24.00
2019-02-26T00:11:57.597Z,23.20
2019-02-26T00:14:30.330Z,23.60
2019-02-26T00:17:00.187Z,25.10
2019-02-26T00:19:47.842Z,23.97
2019-02-26T00:22:21.647Z,22.50
2019-02-26T00:24:52.842Z,27.53
2019-02-26T00:27:32.895Z,19.30
2019-02-26T00:30:08.980Z,19.27
2019-02-26T00:32:40.484Z,24.33
2019-02-26T00:35:15.848Z,23.93
2019-02-26T00:37:50.880Z,22.10
2019-02-26T00:40:28.289Z,18.83
2019-02-26T00:43:00.178Z,23.00
2019-02-26T00:45:31.740Z,19.50
2019-02-26T00:48:01.346Z,23.40
2019-02-26T00:50:33.160Z,18.17
2019-02-26T00:53:04.008Z,20.00
2019-02-26T00:55:34.904Z,23.03
2019-02-26T00:58:08.414Z,22.60
2019-02-26T01:00:47.327Z,22.60
2019-02-26T01:03:17.258Z,20.70
2019-02-26T01:05:47.362Z,21.70
2019-02-26T01:08:19.324Z,22.40
2019-02-26T01:10:49.000Z,19.63
2019-02-26T01:13:20.277Z,22.10
2019-02-26T01:15:50.222Z,23.57
2019-02-26T01:18:22.380Z,25.50
2019-02-26T01:20:54.731Z,22.10
2019-02-26T01:23:26.719Z,21.40
2019-02-26T01:26:00.117Z,28.40
2019-02-26T01:28:30.652Z,28.47
2019-02-26T01:31:05.000Z,26.17
2019-02-26T01:33:48.402Z,25.90
2019-02-26T01:36:22.744Z,27.73
2019-02-26T01:38:53.138Z,27.60
2019-02-26T01:41:43.369Z,21.73
2019-02-26T01:44:15.831Z,23.93
2019-02-26T01:46:47.429Z,22.20
2019-02-26T01:49:25.865Z,21.93
2019-02-26T01:51:58.322Z,22.97
2019-02-26T01:54:35.689Z,18.83
2019-02-26T01:57:08.626Z,22.27
2019-02-26T01:59:47.400Z,23.50
2019-02-26T02:02:20.298Z,23.37
2019-02-26T02:04:49.086Z,24.50
2019-02-26T02:07:21.332Z,22.17
2019-02-26T02:09:53.181Z,16.60
2019-02-26T02:12:27.409Z,15.13
2019-02-26T02:14:56.393Z,17.53
2019-02-26T02:17:28.818Z,21.00
2019-02-26T02:20:03.106Z,22.80
2019-02-26T02:22:35.282Z,21.50
2019-02-26T02:25:09.614Z,24.17
2019-02-26T02:27:47.548Z,21.87
2019-02-26T02:30:22.334Z,23.50
2019-02-26T02:32:52.298Z,21.13
2019-02-26T02:35:21.335Z,24.47
2019-02-26T02:37:53.625Z,21.93
2019-02-26T02:40:34.979Z,19.00
2019-02-26T02:43:07.938Z,21.33
2019-02-26T02:45:40.654Z,15.70
2019-02-26T02:48:11.797Z,17.13
2019-02-26T02:50:42.993Z,16.90
2019-02-26T02:53:23.900Z,17.33
2019-02-26T02:55:55.788Z,16.67
2019-02-26T02:58:29.412Z,19.87
2019-02-26T03:01:05.392Z,15.60
2019-02-26T03:03:43.113Z,16.83
2019-02-26T03:06:13.033Z,16.43
2019-02-26T03:08:45.105Z,17.10
2019-02-26T03:11:15.582Z,15.20
2019-02-26T03:13:45.858Z,14.73
2019-02-26T03:16:19.469Z,17.47
2019-02-26T03:18:49.454Z,20.40
2019-02-26T03:21:21.987Z,17.33
2019-02-26T03:23:58.324Z,18.13
2019-02-26T03:26:30.095Z,14.90
2019-02-26T03:29:02.515Z,15.47
2019-02-26T03:31:40.907Z,16.80
2019-02-26T03:34:20.294Z,16.57
2019-02-26T03:36:48.902Z,14.50
2019-02-26T03:39:19.089Z,17.97
2019-02-26T03:41:51.057Z,15.27
2019-02-26T03:44:22.993Z,20.93
2019-02-26T03:46:53.944Z,16.37
2019-02-26T03:49:33.699Z,17.17
2019-02-26T03:52:08.405Z,15.77
2019-02-26T03:54:45.944Z,14.80
2019-02-26T03:57:22.061Z,19.57
2019-02-26T03:59:51.280Z,14.80
2019-02-26T04:02:23.508Z,15.67
2019-02-26T04:04:54.456Z,16.27
2019-02-26T04:07:25.991Z,15.73
2019-02-26T04:09:58.556Z,14.77
2019-02-26T04:12:28.617Z,17.00
2019-02-26T04:14:59.089Z,18.75
2019-02-26T04:17:30.746Z,15.33
2019-02-26T04:20:02.636Z,15.47
2019-02-26T04:22:39.240Z,15.07
2019-02-26T04:25:39.920Z,17.50
2019-02-26T04:28:33.120Z,20.40
2019-02-26T04:31:57.617Z,18.50
2019-02-26T04:35:26.725Z,19.77
2019-02-26T04:38:32.284Z,18.30
2019-02-26T04:41:37.975Z,17.87
2019-02-26T04:44:34.293Z,17.43
2019-02-26T04:47:14.395Z,17.73
2019-02-26T04:49:47.134Z,16.60
2019-02-26T04:52:19.298Z,15.13
2019-02-26T04:54:52.878Z,15.40
2019-02-26T04:57:46.601Z,14.97
2019-02-26T05:00:15.892Z,15.23
2019-02-26T05:02:45.894Z,15.13
2019-02-26T05:05:21.921Z,15.93
2019-02-26T05:07:51.459Z,12.70
2019-02-26T05:10:24.384Z,18.83
2019-02-26T05:13:03.181Z,17.27
2019-02-26T05:15:44.007Z,15.80
2019-02-26T05:18:17.725Z,20.70
2019-02-26T05:20:52.048Z,22.65
2019-02-26T05:23:31.710Z,20.83
2019-02-26T05:26:08.238Z,15.60
2019-02-26T05:28:40.942Z,18.47
2019-02-26T05:31:24.751Z,16.83
2019-02-26T05:33:57.136Z,16.00
2019-02-26T05:36:42.015Z,15.80
2019-02-26T05:39:14.018Z,14.40
2019-02-26T05:41:45.062Z,13.43
2019-02-26T05:44:15.410Z,15.20
2019-02-26T05:46:58.796Z,18.77
2019-02-26T05:49:37.628Z,19.23
2019-02-26T05:52:07.424Z,16.80
2019-02-26T05:54:37.602Z,14.60
2019-02-26T05:57:25.518Z,16.70
2019-02-26T05:59:43.636Z,19.63
2019-02-26T06:02:19.155Z,19.17
2019-02-26T06:04:49.431Z,15.33
2019-02-26T06:07:25.095Z,15.40
2019-02-26T06:10:05.560Z,20.50
2019-02-26T06:12:38.235Z,19.40
2019-02-26T06:15:40.306Z,24.77
2019-02-26T06:22:00.963Z,16.33
2019-02-26T06:25:17.726Z,16.03
2019-02-26T06:27:57.444Z,18.93
2019-02-26T06:30:48.591Z,23.83
2019-02-26T06:42:14.989Z,19.60
2019-02-26T06:52:06.084Z,19.67
2019-02-26T06:55:45.400Z,21.20
2019-02-26T06:58:31.908Z,19.83
2019-02-26T07:25:13.104Z,18.17
2019-02-26T07:31:10.321Z,24.23
2019-02-26T07:34:20.531Z,19.67
2019-02-26T07:41:30.868Z,30.07
2019-02-26T08:07:30.812Z,20.30
2019-02-26T08:19:53.858Z,16.60
2019-02-26T08:41:50.801Z,14.60
2019-02-26T08:45:31.136Z,15.33
2019-02-26T08:48:05.330Z,18.73
2019-02-26T08:50:38.978Z,16.00
2019-02-26T08:53:16.504Z,12.83
2019-02-26T08:55:48.135Z,14.17
2019-02-26T08:59:00.942Z,17.80
2019-02-26T09:02:08.914Z,17.00
2019-02-26T09:05:09.855Z,13.70
2019-02-26T09:07:43.276Z,12.63
2019-02-26T09:11:13.634Z,12.53
2019-02-26T09:17:39.749Z,13.60
2019-02-26T09:33:15.831Z,20.73
2019-02-26T09:36:12.619Z,20.03
2019-02-26T09:39:17.185Z,19.43
2019-02-26T09:42:16.938Z,19.80
2019-02-26T09:44:53.027Z,24.20
2019-02-26T09:51:16.668Z,19.70
2019-02-26T10:04:59.743Z,16.50
2019-02-26T10:11:01.657Z,22.43
2019-02-26T10:11:34.012Z,20.10
2019-02-26T10:15:06.293Z,18.43
2019-02-26T10:18:25.665Z,14.80
2019-02-26T10:21:14.390Z,16.40
2019-02-26T10:34:15.683Z,12.73
2019-02-26T10:40:34.716Z,14.33
2019-02-26T10:43:56.843Z,15.43
2019-02-26T10:50:10.012Z,12.33
2019-02-26T10:52:40.472Z,13.90
2019-02-26T10:55:55.954Z,11.10
2019-02-26T11:26:58.210Z,5.07
2019-02-26T11:29:57.830Z,7.30
2019-02-26T11:43:11.293Z,6.43
2019-02-26T11:45:44.624Z,4.97
2019-02-26T11:48:21.270Z,6.42
2019-02-26T11:51:01.736Z,6.27
2019-02-26T11:53:47.621Z,5.40
2019-02-26T11:56:25.700Z,11.47
2019-02-26T11:59:06.557Z,7.40
2019-02-26T12:01:44.937Z,11.67
2019-02-26T12:04:17.002Z,6.30
2019-02-26T12:06:45.895Z,5.07
2019-02-26T12:09:16.188Z,8.83
2019-02-26T12:11:46.464Z,11.20
2019-02-26T12:14:19.405Z,6.73
2019-02-26T12:16:54.853Z,6.20
2019-02-26T12:20:31.244Z,6.57
2019-02-26T12:23:00.663Z,4.90
2019-02-26T12:25:56.432Z,5.37
2019-02-26T12:28:32.466Z,4.73
2019-02-26T12:31:31.838Z,6.53
2019-02-26T12:34:14.619Z,6.33
2019-02-26T12:36:44.226Z,9.07
2019-02-26T12:39:16.194Z,6.90
2019-02-26T12:42:10.431Z,6.87
2019-02-26T12:44:45.238Z,5.83
2019-02-26T12:47:24.555Z,7.67
2019-02-26T12:53:56.050Z,6.42
2019-02-26T12:56:36.674Z,7.33
2019-02-26T12:59:15.074Z,9.73
2019-02-26T13:02:36.918Z,7.67
2019-02-26T13:05:10.397Z,6.70
2019-02-26T13:08:18.945Z,8.23
2019-02-26T13:14:02.033Z,8.20
2019-02-26T13:16:36.211Z,11.90
2019-02-26T13:19:18.339Z,6.17
2019-02-26T13:25:54.076Z,7.27
2019-02-26T13:28:29.713Z,15.47
2019-02-26T13:31:02.289Z,6.97
2019-02-26T13:33:36.879Z,5.23
2019-02-26T13:36:04.831Z,5.70
2019-02-26T13:38:44.056Z,7.83
2019-02-26T13:41:25.191Z,6.80
2019-02-26T13:43:39.381Z,6.53
2019-02-26T13:46:09.163Z,6.10
2019-02-26T13:48:39.536Z,5.50
2019-02-26T13:51:09.424Z,7.70
2019-02-26T13:53:39.781Z,7.83
2019-02-26T13:56:09.880Z,5.87
2019-02-26T13:58:39.404Z,5.60
2019-02-26T14:01:08.738Z,5.63
2019-02-26T14:03:39.086Z,9.93
2019-02-26T14:06:10.032Z,6.90
2019-02-26T14:08:40.305Z,7.27
2019-02-26T14:11:14.186Z,8.60
2019-02-26T14:13:43.746Z,5.73
2019-02-26T14:16:19.655Z,7.60
2019-02-26T14:18:49.380Z,6.20
2019-02-26T14:21:18.952Z,6.23
2019-02-26T14:23:49.342Z,6.13
2019-02-26T14:26:19.245Z,6.47
2019-02-26T14:28:48.876Z,7.07
2019-02-26T14:31:20.273Z,5.80
2019-02-26T14:33:49.937Z,6.57
2019-02-26T14:36:19.408Z,5.50
2019-02-26T14:38:49.406Z,6.30
2019-02-26T14:41:18.871Z,6.17
2019-02-26T14:43:48.583Z,15.37
2019-02-26T14:46:18.566Z,6.00
2019-02-26T14:48:48.367Z,6.90
2019-02-26T14:51:18.293Z,9.50
2019-02-26T14:53:49.224Z,7.03
2019-02-26T14:56:18.845Z,7.40
2019-02-26T14:58:59.215Z,6.63
2019-02-26T15:01:27.990Z,10.53
2019-02-26T15:03:57.825Z,7.37
2019-02-26T15:06:27.283Z,6.63
2019-02-26T15:08:56.966Z,7.73
2019-02-26T15:11:26.917Z,6.47
2019-02-26T15:13:57.574Z,5.27
2019-02-26T15:20:26.169Z,6.93
2019-02-26T15:23:12.304Z,7.43
2019-02-26T15:25:44.470Z,6.70
2019-02-26T15:28:18.104Z,9.70
2019-02-26T15:31:09.046Z,6.87
2019-02-26T15:43:31.083Z,6.13
2019-02-26T15:46:51.300Z,5.10
2019-02-26T15:49:24.583Z,7.63
2019-02-26T15:52:16.549Z,7.83
2019-02-26T15:55:08.070Z,9.50
2019-02-26T15:57:39.263Z,7.13
2019-02-26T16:00:44.920Z,8.67
2019-02-26T16:03:41.138Z,8.45
2019-02-26T16:06:14.224Z,8.50
2019-02-26T16:09:12.504Z,13.03
2019-02-26T16:12:07.279Z,19.83
2019-02-26T16:17:36.251Z,12.40
2019-02-26T16:20:09.196Z,10.87
2019-02-26T16:22:42.427Z,8.63
2019-02-26T16:25:12.473Z,11.77
2019-02-26T16:27:44.146Z,14.20
2019-02-26T16:30:19.818Z,11.07
2019-02-26T16:33:23.505Z,12.40
2019-02-26T16:39:36.083Z,10.23
2019-02-26T16:42:58.633Z,13.33
2019-02-26T16:45:18.406Z,11.37
2019-02-26T16:47:53.421Z,16.77
2019-02-26T16:50:34.957Z,18.87
2019-02-26T16:56:37.539Z,22.10
2019-02-26T16:59:15.692Z,14.90
2019-02-26T17:01:58.474Z,14.00
2019-02-26T17:04:28.208Z,15.97
2019-02-26T17:07:04.571Z,17.90
2019-02-26T17:09:43.200Z,13.20
2019-02-26T17:12:12.878Z,15.60
2019-02-26T17:14:42.852Z,23.57
2019-02-26T17:17:12.367Z,26.23
2019-02-26T17:19:42.317Z,27.43
2019-02-26T17:22:11.609Z,20.30
2019-02-26T17:24:41.421Z,30.63
2019-02-26T17:27:11.828Z,19.53
2019-02-26T17:29:41.604Z,17.47
2019-02-26T17:32:11.107Z,17.13
2019-02-26T17:34:40.690Z,27.57
2019-02-26T17:37:10.396Z,25.40
2019-02-26T17:39:40.414Z,23.33
2019-02-26T17:42:09.910Z,29.87
2019-02-26T17:44:41.158Z,21.30
2019-02-26T17:47:11.215Z,20.27
2019-02-26T17:49:41.644Z,22.40
2019-02-26T17:52:12.530Z,27.87
2019-02-26T17:54:41.691Z,27.83
2019-02-26T17:57:11.058Z,29.10
2019-02-26T17:59:40.794Z,26.03
2019-02-26T18:02:10.042Z,23.93
2019-02-26T18:04:39.327Z,26.67
2019-02-26T18:07:09.399Z,21.07
2019-02-26T18:09:39.050Z,20.30
2019-02-26T18:12:08.694Z,25.53
2019-02-26T18:14:39.436Z,25.57
2019-02-26T18:17:09.237Z,26.57
2019-02-26T18:19:40.133Z,19.50
2019-02-26T18:32:36.612Z,20.47
2019-02-26T18:35:06.415Z,16.13
2019-02-26T18:37:46.041Z,23.60
2019-02-26T18:40:09.604Z,19.70
2019-02-26T18:42:41.366Z,13.57
2019-02-26T18:45:15.066Z,22.60
2019-02-26T18:47:47.552Z,19.97
2019-02-26T18:50:17.739Z,17.50
2019-02-26T18:52:48.497Z,18.67
2019-02-26T18:58:52.898Z,14.87
2019-02-26T19:01:25.028Z,21.13
2019-02-26T19:03:59.673Z,15.93
2019-02-26T19:06:36.451Z,17.37
2019-02-26T19:09:12.269Z,15.53
2019-02-26T19:11:42.848Z,16.33
2019-02-26T19:14:18.395Z,18.07
2019-02-26T19:16:54.997Z,15.33
2019-02-26T19:19:28.497Z,15.83
2019-02-26T19:22:01.612Z,27.37
2019-02-26T19:24:35.554Z,15.27
2019-02-26T19:27:05.888Z,14.40
2019-02-26T19:29:39.862Z,15.27
2019-02-26T19:32:11.175Z,16.07
2019-02-26T19:35:00.909Z,16.10
2019-02-26T19:37:32.026Z,16.27
2019-02-26T19:40:05.702Z,18.20
2019-02-26T19:42:42.644Z,14.03
2019-02-26T19:45:12.755Z,21.03
2019-02-26T19:47:46.145Z,18.47
2019-02-26T19:50:17.289Z,20.53
2019-02-26T19:52:56.433Z,32.53
2019-02-26T19:55:36.528Z,22.47
2019-02-26T19:58:11.669Z,17.27
2019-02-26T20:00:45.361Z,17.57
2019-02-26T20:03:17.827Z,23.50
2019-02-26T20:05:57.905Z,20.83
2019-02-26T20:08:30.697Z,15.60
2019-02-26T20:11:00.907Z,15.50
2019-02-26T20:13:31.758Z,17.93
2019-02-26T20:16:10.926Z,19.95
2019-02-26T20:18:42.515Z,18.33
2019-02-26T20:21:12.494Z,29.73
2019-02-26T20:23:43.398Z,27.30
2019-02-26T20:26:16.471Z,32.60
2019-02-26T20:28:46.859Z,24.80
2019-02-26T20:31:16.651Z,26.07
2019-02-26T20:33:46.483Z,24.50
2019-02-26T20:36:23.478Z,22.90
2019-02-26T20:39:02.777Z,15.33
2019-02-26T20:41:33.606Z,13.17
2019-02-26T20:44:04.643Z,22.17
2019-02-26T20:46:36.109Z,22.77
2019-02-26T20:49:13.291Z,21.37
2019-02-26T20:51:59.621Z,26.23
2019-02-26T20:55:04.320Z,31.33
2019-02-26T20:57:37.721Z,20.37
2019-02-26T21:00:24.913Z,19.90
2019-02-26T21:02:56.895Z,26.33
2019-02-26T21:05:32.856Z,22.73
2019-02-26T21:08:04.030Z,18.87
2019-02-26T21:10:34.733Z,25.10
2019-02-26T21:13:04.881Z,21.03
2019-02-26T21:15:38.567Z,21.53
2019-02-26T21:18:11.402Z,19.20
2019-02-26T21:20:41.763Z,20.30
2019-02-26T21:23:11.565Z,18.40
2019-02-26T21:25:47.543Z,20.77
2019-02-26T21:28:18.325Z,18.37
2019-02-26T21:30:50.671Z,21.23
2019-02-26T21:33:35.051Z,17.93
2019-02-26T21:36:06.821Z,20.77
2019-02-26T21:38:56.408Z,22.83
2019-02-26T21:41:29.155Z,20.67
2019-02-26T21:44:01.231Z,18.43
2019-02-26T21:46:32.082Z,19.87
2019-02-26T21:49:07.531Z,19.77
2019-02-26T21:51:41.676Z,19.37
2019-02-26T21:54:12.432Z,18.73
2019-02-26T21:56:48.670Z,16.70
2019-02-26T21:59:18.915Z,18.40
2019-02-26T22:01:48.567Z,16.80
2019-02-26T22:04:19.724Z,21.83
2019-02-26T22:06:58.635Z,19.67
2019-02-26T22:09:34.013Z,25.00
2019-02-26T22:12:29.615Z,21.27
2019-02-26T22:15:05.352Z,16.67
2019-02-26T22:17:38.916Z,18.43
2019-02-26T22:20:35.493Z,20.37
2019-02-26T22:22:51.537Z,18.33
2019-02-26T22:25:22.086Z,20.40
2019-02-26T22:27:51.897Z,21.60
2019-02-26T22:30:22.911Z,19.53
2019-02-26T22:32:54.082Z,23.60
2019-02-26T22:35:25.926Z,20.73
2019-02-26T22:37:56.615Z,21.73
2019-02-26T22:40:29.113Z,17.30
2019-02-26T22:42:59.684Z,16.73
2019-02-26T22:45:36.209Z,19.57
2019-02-26T22:48:06.009Z,29.03
2019-02-26T22:50:35.766Z,18.90
2019-02-26T22:53:05.671Z,17.27
2019-02-26T22:55:36.629Z,19.20
2019-02-26T22:58:35.617Z,19.93
2019-02-26T23:01:17.027Z,21.63
2019-02-26T23:03:53.642Z,23.30
2019-02-26T23:06:29.461Z,18.23
2019-02-26T23:08:59.742Z,20.70
2019-02-26T23:11:32.458Z,21.50
2019-02-26T23:14:05.020Z,18.67
2019-02-26T23:16:36.422Z,20.33
2019-02-26T23:19:07.112Z,19.03
2019-02-26T23:21:37.789Z,18.87
2019-02-26T23:24:11.472Z,18.00
2019-02-26T23:27:14.924Z,17.03
2019-02-26T23:29:59.570Z,15.30
2019-02-26T23:32:30.316Z,17.07
2019-02-26T23:35:10.900Z,18.43
2019-02-26T23:37:40.705Z,18.07
2019-02-26T23:40:12.424Z,16.57
2019-02-26T23:42:54.143Z,17.57
2019-02-26T23:45:24.954Z,21.10
2019-02-26T23:48:01.856Z,17.40
2019-02-26T23:50:31.873Z,15.97
2019-02-26T23:53:01.954Z,18.50
2019-02-26T23:55:31.804Z,19.97
2019-02-26T23:58:01.893Z,19.27
